Time;durP1;ratioP1;P1;durP2;ratioP2;P2;SDS_P1;SDS_P2;PMS_P1;PMS_P2;Temp;Humidity;BMP_temperature;BMP_pressure;BME280_temperature;BME280_humidity;BME280_pressure;Samples;Min_cycle;Max_cycle;Signal;HPM_P1;HPM_P2
2022/01/30 00:01:13;;;;;;;;;;;-1.50;78.60;;;;;;5026731;28;19925;-78
2022/01/30 00:03:40;;;;;;;;;;;-1.50;79.30;;;;;;5012127;28;19948;-77
2022/01/30 00:06:07;;;;;;;;;;;-1.50;79.00;;;;;;5030653;28;20304;-78
2022/01/30 00:08:34;;;;;;;;;;;-1.50;79.30;;;;;;5043684;28;19929;-77
2022/01/30 00:11:09;;;;;;;;;;;-1.50;79.80;;;;;;5032960;28;19933;-80
2022/01/30 00:13:37;;;;;;;;;;;-1.40;79.30;;;;;;5014732;28;19980;-79
2022/01/30 00:16:06;;;;;;;;;;;-1.40;80.40;;;;;;5026419;28;20401;-76
2022/01/30 00:21:33;;;;;;;;;;;-1.50;80.10;;;;;;5021286;28;19979;-78
2022/01/30 00:26:30;;;;;;;;;;;-1.50;81.70;;;;;;5031932;28;19925;-77
2022/01/30 00:28:57;;;;;;;;;;;-1.40;82.40;;;;;;5016913;28;19928;-76
2022/01/30 00:31:25;;;;;;;;;;;-1.40;81.50;;;;;;5020069;28;19933;-76
2022/01/30 00:34:12;;;;;;;;;;;-1.40;81.80;;;;;;5017252;28;19925;-80
2022/01/30 00:36:39;;;;;;;;;;;-1.40;82.10;;;;;;5044202;28;20385;-80
2022/01/30 00:39:05;;;;;;;;;;;-1.40;81.70;;;;;;5030440;28;19933;-77
2022/01/30 00:41:32;;;;;;;;;;;-1.30;82.00;;;;;;5045016;28;19925;-78
2022/01/30 00:43:59;;;;;;;;;;;-1.30;82.20;;;;;;5017503;28;19925;-77
2022/01/30 00:46:26;;;;;;;;;;;-1.20;81.60;;;;;;5025356;28;20340;-78
2022/01/30 00:48:54;;;;;;;;;;;-1.20;81.20;;;;;;5035132;28;19951;-77
2022/01/30 00:51:21;;;;;;;;;;;-1.20;81.70;;;;;;5037836;28;19926;-78
2022/01/30 00:53:48;;;;;;;;;;;-1.10;81.50;;;;;;5044942;28;19932;-78
2022/01/30 00:56:14;;;;;;;;;;;-1.10;82.10;;;;;;5030169;28;20020;-79
2022/01/30 00:58:41;;;;;;;;;;;-1.10;81.20;;;;;;5024739;28;19933;-77
2022/01/30 01:01:08;;;;;;;;;;;-1.20;81.00;;;;;;5028657;28;19980;-77
2022/01/30 01:03:35;;;;;;;;;;;-1.20;81.00;;;;;;5012220;28;20336;-78
2022/01/30 01:06:05;;;;;;;;;;;-1.20;80.50;;;;;;5027625;28;19959;-77
2022/01/30 01:08:48;;;;;;;;;;;-1.20;80.70;;;;;;5037893;28;19933;-78
2022/01/30 01:14:12;;;;;;;;;;;-1.30;81.30;;;;;;5031534;28;19979;-79
2022/01/30 01:24:55;;;;;;;;;;;-1.30;81.90;;;;;;5036681;28;20038;-80
2022/01/30 01:27:21;;;;;;;;;;;-1.30;82.20;;;;;;5037936;28;20298;-77
2022/01/30 01:29:48;;;;;;;;;;;-1.20;82.20;;;;;;5021188;28;20378;-77
2022/01/30 01:32:15;;;;;;;;;;;-1.20;82.10;;;;;;5029630;28;19925;-77
2022/01/30 01:34:44;;;;;;;;;;;-1.00;82.10;;;;;;5014272;28;21451;-77
2022/01/30 01:37:12;;;;;;;;;;;-0.90;81.60;;;;;;5023646;28;19932;-77
2022/01/30 01:39:43;;;;;;;;;;;-0.90;81.00;;;;;;5032701;28;19924;-79
2022/01/30 01:42:10;;;;;;;;;;;-0.80;80.20;;;;;;5028695;28;19998;-77
2022/01/30 01:44:44;;;;;;;;;;;-0.90;79.40;;;;;;5045836;28;19929;-77
2022/01/30 01:47:12;;;;;;;;;;;-0.90;79.30;;;;;;5028814;28;20382;-77
2022/01/30 01:49:39;;;;;;;;;;;-1.10;79.60;;;;;;5016036;28;19974;-79
2022/01/30 01:52:21;;;;;;;;;;;-1.10;79.60;;;;;;5018123;28;19937;-77
2022/01/30 01:54:56;;;;;;;;;;;-1.20;79.40;;;;;;5017329;28;19929;-78
2022/01/30 01:57:24;;;;;;;;;;;-1.30;80.40;;;;;;5034299;28;19925;-76
2022/01/30 01:59:51;;;;;;;;;;;-1.30;80.80;;;;;;5022399;28;19936;-77
2022/01/30 02:02:18;;;;;;;;;;;-1.30;81.20;;;;;;5023629;28;19975;-76
2022/01/30 02:04:46;;;;;;;;;;;-1.30;81.50;;;;;;5013545;28;20472;-77
2022/01/30 02:10:02;;;;;;;;;;;-1.40;81.10;;;;;;5024017;28;19928;-77
2022/01/30 02:12:41;;;;;;;;;;;-1.40;81.40;;;;;;5043925;28;20389;-77
2022/01/30 02:25:42;;;;;;;;;;;-1.40;80.70;;;;;;5034732;28;20015;-77
2022/01/30 02:28:13;;;;;;;;;;;-1.50;80.60;;;;;;5045327;28;19925;-77
2022/01/30 02:30:45;;;;;;;;;;;-1.50;80.50;;;;;;5029598;28;19930;-80
2022/01/30 02:33:12;;;;;;;;;;;-1.50;80.30;;;;;;5022818;28;20496;-77
2022/01/30 02:35:39;;;;;;;;;;;-1.60;80.10;;;;;;5029236;28;20336;-76
2022/01/30 02:38:06;;;;;;;;;;;-1.60;80.40;;;;;;5033509;28;19929;-78
2022/01/30 02:40:38;;;;;;;;;;;-1.60;80.30;;;;;;5027123;28;19925;-77
2022/01/30 02:43:05;;;;;;;;;;;-1.80;80.90;;;;;;5050349;28;19979;-76
2022/01/30 02:45:35;;;;;;;;;;;-1.90;81.10;;;;;;5032552;28;19980;-76
2022/01/30 02:48:16;;;;;;;;;;;-2.00;81.20;;;;;;5040822;28;19931;-76
2022/01/30 02:53:16;;;;;;;;;;;-2.00;82.60;;;;;;5044747;28;19984;-76
2022/01/30 02:55:44;;;;;;;;;;;-1.90;82.60;;;;;;5049552;28;19929;-76
2022/01/30 02:58:11;;;;;;;;;;;-1.90;82.80;;;;;;5049865;28;19924;-78
2022/01/30 03:00:37;;;;;;;;;;;-1.80;83.00;;;;;;5020589;28;19975;-76
2022/01/30 03:03:04;;;;;;;;;;;-1.80;82.50;;;;;;5016915;28;20553;-76
2022/01/30 03:05:31;;;;;;;;;;;-1.80;82.10;;;;;;5029905;28;19975;-77
2022/01/30 03:07:58;;;;;;;;;;;-1.80;81.90;;;;;;5034755;28;19978;-79
2022/01/30 03:10:25;;;;;;;;;;;-1.90;81.60;;;;;;5025016;28;20344;-77
2022/01/30 03:12:52;;;;;;;;;;;-1.90;81.90;;;;;;5032659;28;19928;-79
2022/01/30 03:15:19;;;;;;;;;;;-1.90;81.70;;;;;;5008807;28;19956;-77
2022/01/30 03:17:45;;;;;;;;;;;-2.00;81.60;;;;;;5025256;28;20348;-77
2022/01/30 03:20:12;;;;;;;;;;;-2.20;81.10;;;;;;5007958;28;20401;-77
2022/01/30 03:22:40;;;;;;;;;;;-2.30;81.80;;;;;;5011576;28;19926;-77
2022/01/30 03:25:07;;;;;;;;;;;-2.30;81.70;;;;;;5024418;28;19934;-77
2022/01/30 03:27:34;;;;;;;;;;;-2.30;82.10;;;;;;5034011;28;19947;-77
2022/01/30 03:30:06;;;;;;;;;;;-2.30;82.50;;;;;;5014745;28;20365;-79
2022/01/30 03:32:34;;;;;;;;;;;-2.30;82.80;;;;;;5023441;28;19933;-79
2022/01/30 03:35:01;;;;;;;;;;;-2.30;82.80;;;;;;4999076;28;19991;-77
2022/01/30 03:37:27;;;;;;;;;;;-2.30;82.40;;;;;;5009141;28;19949;-79
2022/01/30 03:39:54;;;;;;;;;;;-2.30;84.00;;;;;;5007885;28;20224;-79
2022/01/30 03:42:21;;;;;;;;;;;-2.40;83.60;;;;;;5051611;28;19932;-76
2022/01/30 03:44:48;;;;;;;;;;;-2.40;84.80;;;;;;5051845;28;19925;-76
2022/01/30 03:47:15;;;;;;;;;;;-2.40;83.40;;;;;;5045531;28;20347;-79
2022/01/30 03:49:42;;;;;;;;;;;-2.40;83.90;;;;;;5034456;28;19931;-77
2022/01/30 03:52:09;;;;;;;;;;;-2.30;84.20;;;;;;5044616;28;19983;-79
2022/01/30 03:54:36;;;;;;;;;;;-2.30;84.50;;;;;;5025030;28;19933;-77
2022/01/30 03:57:04;;;;;;;;;;;-2.30;84.10;;;;;;5031711;28;19979;-77
2022/01/30 03:59:30;;;;;;;;;;;-2.30;85.30;;;;;;5021380;28;20063;-77
2022/01/30 04:01:57;;;;;;;;;;;-2.20;84.70;;;;;;5028725;28;19925;-77
2022/01/30 04:04:24;;;;;;;;;;;-2.20;84.70;;;;;;5032411;28;19991;-80
2022/01/30 04:06:51;;;;;;;;;;;-2.20;84.30;;;;;;5024591;28;19924;-80
2022/01/30 04:09:18;;;;;;;;;;;-2.20;83.80;;;;;;5050069;28;20070;-76
2022/01/30 04:11:45;;;;;;;;;;;-2.20;84.00;;;;;;5038253;28;19929;-79
2022/01/30 04:14:12;;;;;;;;;;;-2.30;83.60;;;;;;5036414;28;20365;-78
2022/01/30 04:16:39;;;;;;;;;;;-2.30;83.40;;;;;;5018062;28;19929;-77
2022/01/30 04:19:07;;;;;;;;;;;-2.30;84.10;;;;;;5023142;28;20356;-77
2022/01/30 04:21:33;;;;;;;;;;;-2.30;83.70;;;;;;5030827;28;19925;-77
2022/01/30 04:24:00;;;;;;;;;;;-2.40;83.30;;;;;;5029657;28;19929;-78
2022/01/30 04:26:27;;;;;;;;;;;-2.40;83.60;;;;;;5011421;28;19925;-76
2022/01/30 04:28:54;;;;;;;;;;;-2.40;83.60;;;;;;5015116;28;19925;-78
2022/01/30 04:31:21;;;;;;;;;;;-2.40;83.40;;;;;;5032253;28;19929;-76
2022/01/30 04:33:48;;;;;;;;;;;-2.40;84.50;;;;;;5010958;28;19926;-76
2022/01/30 04:36:20;;;;;;;;;;;-2.40;83.80;;;;;;5004098;28;19933;-77
2022/01/30 04:41:37;;;;;;;;;;;-2.40;84.60;;;;;;5030430;28;20007;-77
2022/01/30 04:55:51;;;;;;;;;;;-2.30;84.20;;;;;;5051257;28;19933;-76
2022/01/30 05:01:05;;;;;;;;;;;-2.50;82.60;;;;;;5011926;28;20007;-76
2022/01/30 05:03:46;;;;;;;;;;;-2.60;83.40;;;;;;5021738;28;20401;-77
2022/01/30 05:06:17;;;;;;;;;;;-2.60;83.10;;;;;;5011138;28;19941;-77
2022/01/30 05:08:44;;;;;;;;;;;-2.70;83.60;;;;;;5027340;28;19991;-78
2022/01/30 05:11:11;;;;;;;;;;;-2.70;83.60;;;;;;5012947;28;19975;-79
2022/01/30 05:13:43;;;;;;;;;;;-2.80;84.20;;;;;;5029480;28;19929;-78
2022/01/30 05:16:11;;;;;;;;;;;-2.80;83.90;;;;;;5022129;28;19956;-76
2022/01/30 05:18:38;;;;;;;;;;;-2.80;84.10;;;;;;5008795;28;19926;-77
2022/01/30 05:21:04;;;;;;;;;;;-2.80;84.90;;;;;;5034126;28;20377;-77
2022/01/30 05:23:31;;;;;;;;;;;-2.80;85.30;;;;;;5008430;28;19967;-79
2022/01/30 05:26:00;;;;;;;;;;;-2.70;86.00;;;;;;5029622;28;20558;-76
2022/01/30 05:28:27;;;;;;;;;;;-2.70;85.90;;;;;;5025537;28;19933;-77
2022/01/30 05:30:54;;;;;;;;;;;-2.70;85.00;;;;;;5033582;28;20213;-76
2022/01/30 05:33:21;;;;;;;;;;;-2.60;85.00;;;;;;5030228;28;19925;-77
2022/01/30 05:35:48;;;;;;;;;;;-2.60;85.10;;;;;;5027555;28;19965;-78
2022/01/30 05:38:14;;;;;;;;;;;-2.60;84.90;;;;;;5021870;28;19952;-77
2022/01/30 05:40:42;;;;;;;;;;;-2.60;85.10;;;;;;5029640;28;19983;-78
2022/01/30 05:43:09;;;;;;;;;;;-2.50;85.30;;;;;;5030990;28;20436;-76
2022/01/30 05:45:42;;;;;;;;;;;-2.50;84.80;;;;;;5030877;28;19929;-77
2022/01/30 05:48:16;;;;;;;;;;;-2.50;85.10;;;;;;5034827;28;19926;-76
2022/01/30 05:50:44;;;;;;;;;;;-2.40;84.70;;;;;;5027417;28;20325;-78
2022/01/30 05:53:11;;;;;;;;;;;-2.30;85.00;;;;;;5030975;28;19979;-75
2022/01/30 05:55:38;;;;;;;;;;;-2.20;84.40;;;;;;5019346;28;19968;-78
2022/01/30 05:58:05;;;;;;;;;;;-2.20;83.70;;;;;;5020035;28;19940;-76
2022/01/30 06:00:31;;;;;;;;;;;-2.10;83.60;;;;;;5036227;28;19932;-76
2022/01/30 06:02:58;;;;;;;;;;;-2.10;83.70;;;;;;5046404;28;20282;-76
2022/01/30 06:05:26;;;;;;;;;;;-2.10;83.60;;;;;;5033314;28;19929;-76
2022/01/30 06:07:54;;;;;;;;;;;-2.10;83.10;;;;;;5032799;28;19932;-77
2022/01/30 06:10:24;;;;;;;;;;;-2.10;82.70;;;;;;5034290;28;19927;-76
2022/01/30 06:12:51;;;;;;;;;;;-2.10;82.60;;;;;;5017489;28;19933;-78
2022/01/30 06:15:19;;;;;;;;;;;-2.10;82.80;;;;;;5022671;28;19925;-78
2022/01/30 06:17:45;;;;;;;;;;;-2.20;82.40;;;;;;5032370;28;19951;-76
2022/01/30 06:20:12;;;;;;;;;;;-2.30;82.20;;;;;;5033994;28;20385;-76
2022/01/30 06:22:40;;;;;;;;;;;-2.40;82.20;;;;;;5020006;28;19929;-76
2022/01/30 06:25:12;;;;;;;;;;;-2.40;82.20;;;;;;5020125;28;19979;-76
2022/01/30 06:27:39;;;;;;;;;;;-2.30;83.60;;;;;;5032262;28;19975;-79
2022/01/30 06:30:06;;;;;;;;;;;-2.30;83.90;;;;;;5045542;28;20463;-78
2022/01/30 06:32:34;;;;;;;;;;;-2.20;84.10;;;;;;5032689;28;19987;-76
2022/01/30 06:35:03;;;;;;;;;;;-2.10;83.70;;;;;;5019922;28;19953;-76
2022/01/30 06:37:32;;;;;;;;;;;-2.10;83.60;;;;;;5033138;28;20301;-76
2022/01/30 06:39:59;;;;;;;;;;;-2.10;83.10;;;;;;5029652;28;20404;-79
2022/01/30 06:42:28;;;;;;;;;;;-2.10;82.70;;;;;;5022972;28;19929;-79
2022/01/30 06:44:55;;;;;;;;;;;-2.10;82.90;;;;;;5021077;28;20483;-76
2022/01/30 06:47:22;;;;;;;;;;;-2.20;82.50;;;;;;5027768;28;19925;-77
2022/01/30 06:49:49;;;;;;;;;;;-2.30;81.70;;;;;;5022277;28;20389;-76
2022/01/30 06:52:16;;;;;;;;;;;-2.40;82.00;;;;;;5020734;28;19933;-76
2022/01/30 06:54:43;;;;;;;;;;;-2.50;82.90;;;;;;5042145;28;19929;-76
2022/01/30 06:57:10;;;;;;;;;;;-2.50;83.40;;;;;;5037908;28;19929;-79
2022/01/30 06:59:37;;;;;;;;;;;-2.50;83.90;;;;;;5032894;28;20012;-77
2022/01/30 07:02:05;;;;;;;;;;;-2.40;84.50;;;;;;5018545;28;19933;-77
2022/01/30 07:04:33;;;;;;;;;;;-2.40;84.40;;;;;;5046411;28;19929;-79
2022/01/30 07:07:03;;;;;;;;;;;-2.40;84.50;;;;;;5031466;28;19941;-79
2022/01/30 07:09:31;;;;;;;;;;;-2.30;84.10;;;;;;5029896;28;19940;-78
2022/01/30 07:11:57;;;;;;;;;;;-2.30;83.60;;;;;;5012461;28;19933;-77
2022/01/30 07:14:24;;;;;;;;;;;-2.30;83.60;;;;;;5039851;28;19925;-77
2022/01/30 07:16:52;;;;;;;;;;;-2.30;83.30;;;;;;5013126;28;20398;-76
2022/01/30 07:19:18;;;;;;;;;;;-2.30;83.80;;;;;;5027810;28;20019;-78
2022/01/30 07:21:45;;;;;;;;;;;-2.30;83.80;;;;;;5031763;28;19983;-79
2022/01/30 07:24:12;;;;;;;;;;;-2.30;84.00;;;;;;5033837;28;19925;-77
2022/01/30 07:26:39;;;;;;;;;;;-2.30;83.90;;;;;;5051982;28;19974;-77
2022/01/30 07:29:06;;;;;;;;;;;-2.30;84.30;;;;;;5041264;28;20004;-77
2022/01/30 07:31:33;;;;;;;;;;;-2.20;84.30;;;;;;5032005;28;20471;-79
2022/01/30 07:34:00;;;;;;;;;;;-2.20;84.50;;;;;;5022514;28;19929;-78
2022/01/30 07:36:27;;;;;;;;;;;-2.10;84.20;;;;;;5017386;28;19929;-77
2022/01/30 07:38:55;;;;;;;;;;;-2.00;84.60;;;;;;5026536;28;19926;-77
2022/01/30 07:41:22;;;;;;;;;;;-2.00;84.50;;;;;;5012258;28;19929;-77
2022/01/30 07:43:49;;;;;;;;;;;-1.90;84.10;;;;;;5025655;28;19980;-76
2022/01/30 07:46:16;;;;;;;;;;;-1.90;83.90;;;;;;5039037;28;20301;-76
2022/01/30 07:48:43;;;;;;;;;;;-1.80;84.10;;;;;;5020629;28;20407;-77
2022/01/30 07:51:10;;;;;;;;;;;-1.70;83.90;;;;;;5040902;28;19928;-77
2022/01/30 07:53:37;;;;;;;;;;;-1.60;84.10;;;;;;5034191;28;19929;-79
2022/01/30 07:56:04;;;;;;;;;;;-1.30;84.10;;;;;;5047666;28;19925;-77
2022/01/30 07:58:31;;;;;;;;;;;-1.10;83.50;;;;;;5041513;28;19929;-77
2022/01/30 08:00:58;;;;;;;;;;;-0.80;82.70;;;;;;5016450;28;19929;-77
2022/01/30 08:03:25;;;;;;;;;;;-0.50;81.80;;;;;;5047962;28;19933;-79
2022/01/30 08:05:52;;;;;;;;;;;-0.30;81.00;;;;;;5031788;28;19932;-78
2022/01/30 08:08:19;;;;;;;;;;;0.00;80.00;;;;;;5038997;28;19929;-77
2022/01/30 08:10:46;;;;;;;;;;;0.20;79.20;;;;;;5025480;28;20305;-79
2022/01/30 08:13:14;;;;;;;;;;;0.40;79.00;;;;;;5031368;28;19925;-79
2022/01/30 08:15:41;;;;;;;;;;;0.60;78.80;;;;;;5019969;28;19925;-77
2022/01/30 08:18:08;;;;;;;;;;;0.80;77.90;;;;;;5033919;28;19929;-77
2022/01/30 08:20:35;;;;;;;;;;;1.00;77.00;;;;;;5037943;28;19936;-77
2022/01/30 08:23:08;;;;;;;;;;;1.20;75.50;;;;;;5031161;28;20417;-79
2022/01/30 08:25:34;;;;;;;;;;;1.40;74.30;;;;;;5040655;28;19929;-77
2022/01/30 08:28:01;;;;;;;;;;;1.60;74.40;;;;;;5020257;28;19936;-79
2022/01/30 08:30:28;;;;;;;;;;;1.80;74.40;;;;;;5032304;28;19929;-79
2022/01/30 08:32:58;;;;;;;;;;;2.00;72.70;;;;;;5030395;28;19925;-77
2022/01/30 08:35:25;;;;;;;;;;;2.30;72.90;;;;;;5026542;28;20439;-78
2022/01/30 08:37:52;;;;;;;;;;;2.50;72.00;;;;;;5021641;28;19925;-77
2022/01/30 08:40:19;;;;;;;;;;;2.70;70.80;;;;;;5017902;28;19925;-77
2022/01/30 08:42:47;;;;;;;;;;;2.90;71.20;;;;;;5026178;28;19932;-77
2022/01/30 08:45:14;;;;;;;;;;;3.00;72.00;;;;;;5028898;28;20394;-77
2022/01/30 08:47:42;;;;;;;;;;;3.20;71.50;;;;;;5024824;28;19932;-77
2022/01/30 08:50:10;;;;;;;;;;;3.30;71.10;;;;;;5027740;28;19929;-77
2022/01/30 08:52:37;;;;;;;;;;;3.40;70.20;;;;;;5028902;28;20293;-77
2022/01/30 08:55:04;;;;;;;;;;;3.60;70.40;;;;;;5030122;28;20397;-77
2022/01/30 08:57:32;;;;;;;;;;;3.80;69.30;;;;;;5035443;28;19933;-77
2022/01/30 08:59:59;;;;;;;;;;;4.10;68.30;;;;;;5042094;28;20439;-77
2022/01/30 09:02:26;;;;;;;;;;;4.30;67.50;;;;;;5035475;28;20412;-77
2022/01/30 09:04:54;;;;;;;;;;;4.50;66.70;;;;;;5039546;28;19932;-77
2022/01/30 09:07:20;;;;;;;;;;;4.70;66.00;;;;;;5025314;28;19933;-77
2022/01/30 09:09:47;;;;;;;;;;;4.90;64.80;;;;;;5026875;28;20389;-77
2022/01/30 09:12:14;;;;;;;;;;;5.00;64.50;;;;;;5022323;28;19925;-78
2022/01/30 09:14:43;;;;;;;;;;;5.20;63.90;;;;;;5019083;28;19925;-78
2022/01/30 09:17:15;;;;;;;;;;;5.40;63.10;;;;;;5027242;28;19929;-79
2022/01/30 09:19:46;;;;;;;;;;;5.60;63.70;;;;;;5024978;28;19975;-79
2022/01/30 09:22:15;;;;;;;;;;;5.70;63.20;;;;;;5061957;28;19932;-76
2022/01/30 09:24:46;;;;;;;;;;;5.90;63.00;;;;;;5047284;28;19928;-80
2022/01/30 09:27:13;;;;;;;;;;;6.10;62.60;;;;;;5045102;28;19929;-77
2022/01/30 09:29:40;;;;;;;;;;;6.20;62.00;;;;;;5040210;28;19968;-78
2022/01/30 09:32:08;;;;;;;;;;;6.30;61.40;;;;;;5044254;28;19932;-78
2022/01/30 09:34:35;;;;;;;;;;;6.50;62.40;;;;;;5037800;28;19929;-80
2022/01/30 09:37:03;;;;;;;;;;;6.60;60.70;;;;;;5042693;28;20024;-78
2022/01/30 09:39:30;;;;;;;;;;;6.70;59.90;;;;;;4998907;28;19935;-78
2022/01/30 09:41:57;;;;;;;;;;;6.90;60.90;;;;;;5015789;28;19941;-78
2022/01/30 09:44:24;;;;;;;;;;;7.00;61.00;;;;;;5006362;28;19941;-80
2022/01/30 09:46:51;;;;;;;;;;;7.20;62.10;;;;;;5008700;28;19971;-79
2022/01/30 09:49:21;;;;;;;;;;;7.30;59.80;;;;;;5012264;28;19925;-80
2022/01/30 09:51:48;;;;;;;;;;;7.50;59.20;;;;;;5018963;28;20356;-77
2022/01/30 09:54:15;;;;;;;;;;;7.70;58.20;;;;;;5009581;28;19933;-80
2022/01/30 09:56:42;;;;;;;;;;;7.80;57.90;;;;;;4998493;28;20394;-78
2022/01/30 09:59:09;;;;;;;;;;;8.10;57.10;;;;;;5004728;28;19975;-78
2022/01/30 10:01:36;;;;;;;;;;;8.20;56.30;;;;;;5021733;28;19933;-79
2022/01/30 10:04:04;;;;;;;;;;;8.40;56.40;;;;;;5002081;28;19926;-77
2022/01/30 10:06:49;;;;;;;;;;;8.50;55.70;;;;;;5010699;28;19930;-80
2022/01/30 10:09:29;;;;;;;;;;;8.70;55.00;;;;;;5021502;28;19925;-77
2022/01/30 10:12:36;;;;;;;;;;;8.90;52.00;;;;;;5015450;28;19932;-78
2022/01/30 10:15:01;;;;;;;;;;;9.00;50.20;;;;;;5030126;28;20294;-77
2022/01/30 10:17:51;;;;;;;;;;;9.10;50.20;;;;;;5011009;28;20519;-78
2022/01/30 10:20:38;;;;;;;;;;;9.30;49.50;;;;;;5028673;28;19929;-77
2022/01/30 10:23:09;;;;;;;;;;;9.40;50.60;;;;;;5031882;28;19936;-76
2022/01/30 10:25:37;;;;;;;;;;;9.60;51.40;;;;;;5018750;28;19929;-76
2022/01/30 10:28:11;;;;;;;;;;;9.60;48.90;;;;;;5032465;28;19932;-78
2022/01/30 10:30:40;;;;;;;;;;;9.60;49.20;;;;;;5026791;28;19929;-77
2022/01/30 10:33:09;;;;;;;;;;;9.80;49.10;;;;;;5049111;28;19933;-77
2022/01/30 10:35:45;;;;;;;;;;;10.10;47.90;;;;;;5016876;28;19929;-75
2022/01/30 10:38:23;;;;;;;;;;;10.20;46.90;;;;;;5022246;28;19925;-76
2022/01/30 10:40:54;;;;;;;;;;;10.50;45.90;;;;;;5008872;28;19961;-77
2022/01/30 10:43:22;;;;;;;;;;;10.60;46.10;;;;;;5018894;28;19925;-77
2022/01/30 10:45:49;;;;;;;;;;;10.80;45.70;;;;;;5032500;28;20392;-77
2022/01/30 10:48:17;;;;;;;;;;;11.00;45.60;;;;;;5032175;28;19925;-77
2022/01/30 10:50:46;;;;;;;;;;;11.10;43.40;;;;;;5004994;28;19925;-77
2022/01/30 10:53:25;;;;;;;;;;;11.20;44.00;;;;;;5002248;28;19968;-77
2022/01/30 10:55:52;;;;;;;;;;;11.30;43.70;;;;;;5025815;28;20412;-79
2022/01/30 10:58:21;;;;;;;;;;;11.40;43.10;;;;;;5031398;28;19929;-78
2022/01/30 11:00:48;;;;;;;;;;;11.60;42.40;;;;;;5029414;28;20930;-78
2022/01/30 11:03:33;;;;;;;;;;;11.70;43.20;;;;;;5026190;28;19987;-78
2022/01/30 11:06:00;;;;;;;;;;;11.90;42.80;;;;;;5022915;28;19941;-77
2022/01/30 11:08:29;;;;;;;;;;;12.00;42.20;;;;;;5025788;28;19926;-78
2022/01/30 11:11:13;;;;;;;;;;;12.20;42.40;;;;;;5025714;28;19933;-80
2022/01/30 11:19:15;;;;;;;;;;;12.60;39.40;;;;;;5023119;28;20522;-77
2022/01/30 11:21:43;;;;;;;;;;;12.60;39.00;;;;;;5031336;28;19932;-77
2022/01/30 11:24:11;;;;;;;;;;;12.70;40.40;;;;;;5023338;28;20389;-78
2022/01/30 11:26:39;;;;;;;;;;;13.00;37.80;;;;;;5025623;28;20286;-79
2022/01/30 11:29:09;;;;;;;;;;;13.00;38.00;;;;;;5022140;28;19929;-78
2022/01/30 11:31:36;;;;;;;;;;;13.20;37.10;;;;;;5025227;28;19963;-78
2022/01/30 11:34:04;;;;;;;;;;;13.30;36.30;;;;;;5022966;28;19925;-79
2022/01/30 11:36:32;;;;;;;;;;;13.40;37.50;;;;;;5031717;28;20389;-76
2022/01/30 11:38:59;;;;;;;;;;;13.60;36.70;;;;;;5026897;28;19938;-76
2022/01/30 11:41:26;;;;;;;;;;;13.80;36.00;;;;;;5027755;28;19933;-78
2022/01/30 11:44:12;;;;;;;;;;;14.00;34.30;;;;;;5026734;28;19925;-79
2022/01/30 11:46:39;;;;;;;;;;;14.10;33.90;;;;;;5029017;28;19933;-77
2022/01/30 11:49:13;;;;;;;;;;;14.30;33.40;;;;;;5029443;28;19931;-79
2022/01/30 11:51:49;;;;;;;;;;;14.40;32.80;;;;;;5019978;28;19929;-79
2022/01/30 11:54:35;;;;;;;;;;;14.40;33.60;;;;;;5028035;28;19938;-77
2022/01/30 11:57:03;;;;;;;;;;;14.60;33.00;;;;;;5003980;28;20336;-77
2022/01/30 11:59:38;;;;;;;18.17;12.25;;;14.80;32.50;;;;;;5028215;28;19976;-79
2022/01/30 12:02:20;;;;;;;19.80;12.30;;;14.80;33.20;;;;;;5029293;28;20052;-78
2022/01/30 12:04:59;;;;;;;18.25;12.32;;;15.00;32.90;;;;;;5023823;28;20112;-79
2022/01/30 12:07:42;;;;;;;22.45;16.05;;;15.20;33.90;;;;;;5023761;28;20400;-80
2022/01/30 12:10:26;;;;;;;21.00;15.50;;;15.30;33.20;;;;;;5013911;28;20744;-79
2022/01/30 12:12:59;;;;;;;24.20;16.90;;;15.40;33.50;;;;;;5038684;28;20420;-80
2022/01/30 12:15:35;;;;;;;22.40;16.10;;;15.60;32.60;;;;;;5030547;28;21102;-77
2022/01/30 12:18:04;;;;;;;19.80;14.55;;;15.60;32.80;;;;;;5038503;28;20960;-80
2022/01/30 12:20:53;;;;;;;19.42;14.45;;;15.70;32.20;;;;;;5022842;28;20420;-76
2022/01/30 12:23:34;;;;;;;23.33;15.15;;;15.90;31.30;;;;;;5032966;28;20057;-78
2022/01/30 12:26:08;;;;;;;19.80;14.25;;;16.00;31.40;;;;;;5015707;28;20057;-79
2022/01/30 12:28:49;;;;;;;19.70;13.82;;;16.10;31.70;;;;;;5029543;28;20502;-80
2022/01/30 12:31:35;;;;;;;19.63;13.20;;;16.20;30.70;;;;;;5026364;28;20092;-79
2022/01/30 12:34:07;;;;;;;21.15;14.80;;;16.20;30.80;;;;;;5009707;28;20062;-79
2022/01/30 12:36:37;;;;;;;22.55;14.55;;;16.40;31.10;;;;;;5029205;28;20078;-81
2022/01/30 12:39:16;;;;;;;22.85;14.20;;;16.50;31.80;;;;;;5027195;28;20108;-79
2022/01/30 12:41:43;;;;;;;24.50;15.35;;;16.50;30.20;;;;;;5031612;28;20548;-76
2022/01/30 12:44:19;;;;;;;20.92;15.45;;;16.60;30.80;;;;;;5019997;28;20143;-77
2022/01/30 12:46:50;;;;;;;21.58;13.98;;;16.80;31.00;;;;;;5011265;28;20060;-77
2022/01/30 12:49:28;;;;;;;;;;;16.90;30.70;;;;;;5033643;28;20057;-76
2022/01/30 12:51:56;;;;;;;;;;;17.00;29.10;;;;;;5051639;28;19949;-80
2022/01/30 12:54:24;;;;;;;;;;;17.00;29.50;;;;;;5021185;28;19933;-77
2022/01/30 12:56:52;;;;;;;;;;;17.10;29.70;;;;;;5018125;28;19922;-77
2022/01/30 12:59:23;;;;;;;;;;;17.20;29.90;;;;;;5025894;28;20415;-77
2022/01/30 13:01:50;;;;;;;;;;;17.30;30.50;;;;;;5032872;28;19934;-78
2022/01/30 13:04:18;;;;;;;;;;;17.30;29.80;;;;;;5023117;28;20016;-79
2022/01/30 13:06:49;;;;;;;;;;;17.50;29.40;;;;;;5026796;28;19926;-80
2022/01/30 13:09:39;;;;;;;;;;;17.50;29.10;;;;;;5041502;28;20388;-78
2022/01/30 13:12:13;;;;;;;;;;;17.60;29.00;;;;;;5017261;28;19933;-80
2022/01/30 13:14:43;;;;;;;;;;;17.60;28.70;;;;;;5031626;28;19925;-76
2022/01/30 13:17:10;;;;;;;;;;;17.70;29.10;;;;;;5021724;28;19928;-81
2022/01/30 13:19:39;;;;;;;;;;;17.80;29.30;;;;;;5052769;28;19925;-81
2022/01/30 13:22:07;;;;;;;;;;;17.80;29.50;;;;;;5029649;28;19921;-76
2022/01/30 13:24:34;;;;;;;;;;;17.80;29.50;;;;;;5028303;28;19975;-79
2022/01/30 13:27:05;;;;;;;;;;;17.70;28.60;;;;;;5048773;28;19925;-79
2022/01/30 13:29:34;;;;;;;;;;;17.60;28.60;;;;;;5019018;28;19921;-76
2022/01/30 13:32:06;;;;;;;;;;;17.70;29.50;;;;;;5017983;28;20405;-80
2022/01/30 13:34:33;;;;;;;;;;;17.70;29.70;;;;;;5002406;28;19925;-79
2022/01/30 13:37:07;;;;;;;;;;;17.70;29.60;;;;;;5006740;28;19944;-79
2022/01/30 13:39:48;;;;;;;;;;;17.90;29.50;;;;;;5008828;28;19925;-76
2022/01/30 13:45:04;;;;;;;;;;;18.00;29.10;;;;;;5002667;28;20390;-80
2022/01/30 13:47:32;;;;;;;;;;;18.00;29.50;;;;;;5014088;28;19921;-78
2022/01/30 13:49:59;;;;;;;;;;;18.00;29.90;;;;;;5039802;28;19929;-80
2022/01/30 13:52:30;;;;;;;;;;;18.10;29.30;;;;;;5029869;28;20035;-78
2022/01/30 13:54:58;;;;;;;;;;;18.00;28.90;;;;;;5027081;28;19922;-76
2022/01/30 13:57:32;;;;;;;;;;;18.00;29.30;;;;;;5026722;28;19925;-80
2022/01/30 14:00:18;;;;;;;;;;;18.00;29.50;;;;;;5064604;28;20400;-79
2022/01/30 14:02:57;;;;;;;;;;;18.10;30.10;;;;;;5012473;28;19929;-77
2022/01/30 14:05:31;;;;;;;;;;;18.10;28.60;;;;;;5040000;28;20377;-80
2022/01/30 14:07:59;;;;;;;;;;;18.20;30.00;;;;;;5016081;28;20451;-78
2022/01/30 14:10:29;;;;;;;;;;;18.20;29.80;;;;;;5017151;28;20377;-78
2022/01/30 14:13:01;;;;;;;;;;;18.20;30.10;;;;;;5022135;28;20457;-77
2022/01/30 14:15:29;;;;;;;;;;;18.20;29.00;;;;;;5026459;28;19976;-78
2022/01/30 14:18:16;;;;;;;;;;;18.20;29.30;;;;;;5030468;28;19921;-78
2022/01/30 14:20:48;;;;;;;;;;;18.10;28.60;;;;;;5022215;28;19943;-80
2022/01/30 14:23:17;;;;;;;;;;;18.00;29.90;;;;;;5032609;28;20386;-80
2022/01/30 14:25:46;;;;;;;;;;;17.90;29.50;;;;;;5047942;28;19921;-78
2022/01/30 14:28:20;;;;;;;;;;;17.90;30.00;;;;;;5035373;28;19929;-80
2022/01/30 14:30:47;;;;;;;;;;;18.00;29.60;;;;;;5065470;28;19921;-76
2022/01/30 14:33:14;;;;;;;;;;;18.00;29.50;;;;;;5026541;28;19921;-79
2022/01/30 14:35:42;;;;;;;;;;;17.90;28.50;;;;;;5028868;28;19928;-79
2022/01/30 14:38:09;;;;;;;;;;;17.90;29.70;;;;;;5020913;28;19925;-80
2022/01/30 14:40:39;;;;;;;;;;;17.90;29.90;;;;;;5012292;28;19925;-78
2022/01/30 14:43:08;;;;;;;;;;;17.80;30.20;;;;;;5026816;28;19927;-77
2022/01/30 14:45:36;;;;;;;;;;;17.80;30.70;;;;;;5023777;28;19925;-78
2022/01/30 14:48:03;;;;;;;;;;;17.80;30.90;;;;;;5026315;28;19932;-76
2022/01/30 14:50:37;;;;;;;;;;;17.70;30.70;;;;;;5027898;28;20617;-76
2022/01/30 14:53:04;;;;;;;;;;;17.70;30.60;;;;;;5055517;28;19925;-78
2022/01/30 14:55:30;;;;;;;;;;;17.60;31.00;;;;;;5030243;28;20400;-79
2022/01/30 14:57:58;;;;;;;;;;;17.60;31.60;;;;;;5029150;28;19921;-77
2022/01/30 15:00:26;;;;;;;;;;;17.60;31.30;;;;;;5024849;28;19925;-80
2022/01/30 15:02:53;;;;;;;;;;;17.50;31.90;;;;;;5027155;28;19944;-79
2022/01/30 15:05:21;;;;;;;;;;;17.40;31.80;;;;;;5013964;28;20016;-79
2022/01/30 15:07:49;;;;;;;;;;;17.40;31.90;;;;;;5026299;28;19928;-80
2022/01/30 15:10:16;;;;;;;;;;;17.30;32.80;;;;;;5027820;28;20381;-80
2022/01/30 15:12:43;;;;;;;;;;;17.40;32.30;;;;;;5029234;28;19948;-80
2022/01/30 15:15:11;;;;;;;;;;;17.30;32.60;;;;;;5013480;28;19922;-77
2022/01/30 15:17:39;;;;;;;;;;;17.30;33.10;;;;;;4998154;28;20409;-77
2022/01/30 15:20:12;;;;;;;;;;;17.30;32.70;;;;;;5010014;28;19925;-77
2022/01/30 15:22:40;;;;;;;;;;;17.30;32.30;;;;;;5009390;28;20381;-80